createdAt,value
2022-08-19T00:00:20.191Z,20.73
2022-08-19T00:02:50.386Z,20.75
2022-08-19T00:05:18.478Z,20.75
2022-08-19T00:07:45.940Z,20.72
2022-08-19T00:10:14.203Z,20.68
2022-08-19T00:12:43.908Z,20.68
2022-08-19T00:15:15.976Z,20.68
2022-08-19T00:17:44.151Z,20.67
2022-08-19T00:20:14.298Z,20.63
2022-08-19T00:22:42.754Z,20.58
2022-08-19T00:25:10.315Z,20.58
2022-08-19T00:27:37.495Z,20.59
2022-08-19T00:30:06.192Z,20.56
2022-08-19T00:32:34.335Z,20.50
2022-08-19T00:35:02.491Z,20.45
2022-08-19T00:37:29.743Z,20.43
2022-08-19T00:39:57.248Z,20.43
2022-08-19T00:42:24.658Z,20.41
2022-08-19T00:44:52.149Z,20.35
2022-08-19T00:47:19.268Z,20.31
2022-08-19T00:49:52.560Z,20.30
2022-08-19T00:52:31.424Z,20.31
2022-08-19T00:54:58.851Z,20.29
2022-08-19T00:57:37.048Z,20.26
2022-08-19T01:00:07.544Z,20.22
2022-08-19T01:02:34.726Z,20.25
2022-08-19T01:05:03.109Z,20.27
2022-08-19T01:07:38.083Z,20.26
2022-08-19T01:10:11.333Z,20.22
2022-08-19T01:12:38.894Z,20.18
2022-08-19T01:15:10.361Z,20.18
2022-08-19T01:17:37.795Z,20.19
2022-08-19T01:20:06.684Z,20.18
2022-08-19T01:22:37.371Z,20.14
2022-08-19T01:25:06.979Z,20.11
2022-08-19T01:27:44.435Z,20.12
2022-08-19T01:30:15.460Z,20.15
2022-08-19T01:32:42.744Z,20.14
2022-08-19T01:36:37.370Z,20.10
2022-08-19T01:39:08.696Z,20.01
2022-08-19T01:41:36.012Z,19.99
2022-08-19T01:44:18.894Z,19.99
2022-08-19T01:46:48.513Z,19.96
2022-08-19T01:49:16.203Z,19.90
2022-08-19T01:51:43.390Z,19.85
2022-08-19T01:54:11.628Z,19.85
2022-08-19T01:56:39.534Z,19.86
2022-08-19T01:59:12.108Z,19.84
2022-08-19T02:01:39.450Z,19.79
2022-08-19T02:04:07.112Z,19.73
2022-08-19T02:06:34.364Z,19.74
2022-08-19T02:09:01.606Z,19.74
2022-08-19T02:11:32.764Z,19.73
2022-08-19T02:14:00.308Z,19.68
2022-08-19T02:16:27.573Z,19.63
2022-08-19T02:18:55.924Z,19.63
2022-08-19T02:21:23.789Z,19.65
2022-08-19T02:23:50.985Z,19.63
2022-08-19T02:26:18.466Z,19.60
2022-08-19T02:28:45.650Z,19.57
2022-08-19T02:31:14.128Z,19.56
2022-08-19T02:33:41.487Z,19.58
2022-08-19T02:36:09.121Z,19.57
2022-08-19T02:38:36.565Z,19.53
2022-08-19T02:41:11.168Z,19.48
2022-08-19T02:43:39.841Z,19.48
2022-08-19T02:46:22.976Z,19.49
2022-08-19T02:48:54.393Z,19.47
2022-08-19T02:51:27.921Z,19.44
2022-08-19T02:53:55.481Z,19.39
2022-08-19T02:56:22.594Z,19.39
2022-08-19T02:58:50.079Z,19.40
2022-08-19T03:01:28.133Z,19.39
2022-08-19T03:03:56.875Z,19.34
2022-08-19T03:06:24.509Z,19.28
2022-08-19T03:08:51.669Z,19.27
2022-08-19T03:11:29.558Z,19.29
2022-08-19T03:13:57.121Z,19.28
2022-08-19T03:16:27.378Z,19.26
2022-08-19T03:18:55.308Z,19.25
2022-08-19T03:21:25.066Z,19.27
2022-08-19T03:23:55.446Z,19.31
2022-08-19T03:26:23.075Z,19.32
2022-08-19T03:28:58.629Z,19.30
2022-08-19T03:31:44.013Z,19.27
2022-08-19T03:34:18.930Z,19.31
2022-08-19T03:36:46.866Z,19.35
2022-08-19T03:39:14.086Z,19.36
2022-08-19T03:41:45.152Z,19.34
2022-08-19T03:44:19.438Z,19.30
2022-08-19T03:46:51.398Z,19.32
2022-08-19T03:49:19.593Z,19.36
2022-08-19T03:51:47.777Z,19.36
2022-08-19T03:54:16.230Z,19.35
2022-08-19T03:56:46.096Z,19.32
2022-08-19T03:59:15.454Z,19.36
2022-08-19T04:01:42.938Z,19.40
2022-08-19T04:04:10.636Z,19.41
2022-08-19T04:06:39.825Z,19.39
2022-08-19T04:09:10.184Z,19.38
2022-08-19T04:11:44.831Z,19.42
2022-08-19T04:14:15.289Z,19.48
2022-08-19T04:16:43.818Z,19.52
2022-08-19T04:19:13.446Z,19.54
2022-08-19T04:21:40.988Z,19.53
2022-08-19T04:24:08.337Z,19.58
2022-08-19T04:26:36.562Z,19.65
2022-08-19T04:29:11.667Z,19.69
2022-08-19T04:31:40.582Z,19.71
2022-08-19T04:34:11.696Z,19.73
2022-08-19T04:36:40.484Z,19.79
2022-08-19T04:39:09.794Z,19.87
2022-08-19T04:41:55.555Z,19.91
2022-08-19T04:44:22.841Z,19.93
2022-08-19T04:46:51.472Z,19.94
2022-08-19T04:49:23.588Z,20.01
2022-08-19T04:51:51.671Z,20.09
2022-08-19T04:54:37.600Z,20.14
2022-08-19T04:57:11.251Z,20.20
2022-08-19T04:59:39.324Z,20.24
2022-08-19T05:02:07.297Z,20.33
2022-08-19T05:04:34.769Z,20.43
2022-08-19T05:07:02.389Z,20.53
2022-08-19T05:09:36.131Z,20.64
2022-08-19T05:12:18.594Z,20.78
2022-08-19T05:14:48.408Z,20.95
2022-08-19T05:17:37.463Z,21.13
2022-08-19T05:20:24.383Z,21.28
2022-08-19T05:22:51.535Z,21.49
2022-08-19T05:25:20.589Z,21.64
2022-08-19T05:27:50.671Z,21.83
2022-08-19T05:30:18.212Z,22.05
2022-08-19T05:32:45.972Z,22.26
2022-08-19T05:35:13.147Z,22.48
2022-08-19T05:37:43.481Z,22.68
2022-08-19T05:40:11.462Z,22.95
2022-08-19T05:42:39.083Z,23.19
2022-08-19T05:45:07.079Z,23.42
2022-08-19T05:47:34.297Z,23.60
2022-08-19T05:50:05.054Z,23.74
2022-08-19T05:52:33.460Z,23.88
2022-08-19T05:55:00.885Z,24.02
2022-08-19T05:57:30.212Z,24.26
2022-08-19T05:59:59.185Z,24.50
2022-08-19T06:02:27.813Z,24.70
2022-08-19T06:04:55.099Z,24.91
2022-08-19T06:07:22.395Z,25.12
2022-08-19T06:09:59.795Z,25.31
2022-08-19T06:12:35.497Z,25.53
2022-08-19T06:15:11.077Z,25.69
2022-08-19T06:17:38.397Z,25.86
2022-08-19T06:20:07.423Z,26.01
2022-08-19T06:22:39.393Z,26.17
2022-08-19T06:25:07.622Z,26.42
2022-08-19T06:27:35.000Z,26.70
2022-08-19T06:30:03.671Z,26.96
2022-08-19T06:32:37.884Z,27.18
2022-08-19T06:35:26.661Z,27.38
2022-08-19T06:38:11.040Z,27.60
2022-08-19T06:41:00.581Z,27.84
2022-08-19T06:43:31.414Z,28.08
2022-08-19T06:46:00.127Z,28.34
2022-08-19T06:48:28.818Z,28.61
2022-08-19T06:51:08.799Z,28.85
2022-08-19T06:53:36.746Z,29.07
2022-08-19T06:56:04.345Z,29.24
2022-08-19T06:58:34.276Z,29.43
2022-08-19T07:01:05.702Z,29.60
2022-08-19T07:03:37.338Z,29.81
2022-08-19T07:06:09.817Z,30.01
2022-08-19T07:08:48.758Z,30.17
2022-08-19T07:11:18.593Z,30.31
2022-08-19T07:13:46.985Z,30.49
2022-08-19T07:16:21.029Z,30.65
2022-08-19T07:19:00.706Z,30.82
2022-08-19T07:21:42.601Z,31.04
2022-08-19T07:24:14.623Z,31.24
2022-08-19T07:26:43.351Z,31.46
2022-08-19T07:29:17.931Z,31.62
2022-08-19T07:32:04.701Z,31.74
2022-08-19T07:34:50.685Z,31.85
2022-08-19T07:37:19.213Z,31.98
2022-08-19T07:39:49.330Z,32.11
2022-08-19T07:42:34.961Z,32.27
2022-08-19T07:45:17.990Z,32.48
2022-08-19T07:48:09.139Z,32.68
2022-08-19T07:50:39.110Z,32.96
2022-08-19T07:53:16.100Z,33.27
2022-08-19T07:55:46.988Z,33.58
2022-08-19T07:58:19.164Z,33.84
2022-08-19T08:00:48.206Z,34.09
2022-08-19T08:03:21.105Z,34.29
2022-08-19T08:06:06.956Z,34.50
2022-08-19T08:08:52.882Z,34.72
2022-08-19T08:11:21.477Z,34.88
2022-08-19T08:14:00.515Z,35.04
2022-08-19T08:16:32.525Z,35.21
2022-08-19T08:18:59.986Z,35.44
2022-08-19T08:21:27.306Z,35.64
2022-08-19T08:23:57.166Z,35.80
2022-08-19T08:26:24.865Z,35.96
2022-08-19T08:28:53.121Z,36.12
2022-08-19T08:31:20.856Z,36.30
2022-08-19T08:33:48.171Z,36.48
2022-08-19T08:36:16.172Z,36.58
2022-08-19T08:38:45.069Z,36.59
2022-08-19T08:41:34.603Z,36.61
2022-08-19T08:44:02.745Z,36.67
2022-08-19T08:47:49.162Z,36.73
2022-08-19T08:50:38.166Z,36.95
2022-08-19T08:53:06.558Z,37.10
2022-08-19T08:55:49.705Z,37.30
2022-08-19T08:58:43.363Z,37.53
2022-08-19T09:01:11.979Z,37.71
2022-08-19T09:03:41.918Z,37.90
2022-08-19T09:06:31.499Z,38.09
2022-08-19T09:09:16.703Z,38.23
2022-08-19T09:12:12.014Z,38.34
2022-08-19T09:14:58.015Z,38.41
2022-08-19T09:17:38.675Z,38.45
2022-08-19T09:20:24.535Z,38.46
2022-08-19T09:22:56.864Z,38.53
2022-08-19T09:25:37.637Z,38.59
2022-08-19T09:28:26.904Z,38.66
2022-08-19T09:31:13.278Z,38.62
2022-08-19T09:33:52.356Z,38.44
2022-08-19T09:37:14.632Z,38.08
2022-08-19T09:40:53.798Z,37.37
2022-08-19T09:43:33.944Z,36.71
2022-08-19T09:46:22.289Z,36.29
2022-08-19T09:49:06.450Z,35.91
2022-08-19T09:51:53.577Z,35.51
2022-08-19T09:54:23.730Z,35.16
2022-08-19T09:56:59.411Z,34.85
2022-08-19T09:59:40.292Z,34.54
2022-08-19T10:02:14.664Z,34.19
2022-08-19T10:05:32.886Z,33.85
2022-08-19T10:08:05.345Z,33.48
2022-08-19T10:10:46.606Z,33.20
2022-08-19T10:13:16.244Z,32.97
2022-08-19T10:15:47.665Z,32.76
2022-08-19T10:18:19.435Z,32.58
2022-08-19T10:20:51.739Z,32.42
2022-08-19T10:23:21.909Z,32.29
2022-08-19T10:25:50.077Z,32.29
2022-08-19T10:28:19.364Z,32.53
2022-08-19T10:30:49.309Z,32.97
2022-08-19T10:33:40.904Z,33.49
2022-08-19T10:36:05.879Z,34.09
2022-08-19T10:38:33.223Z,34.51
2022-08-19T10:41:24.945Z,34.87
2022-08-19T10:44:32.576Z,35.29
2022-08-19T10:47:03.535Z,35.77
2022-08-19T10:49:58.362Z,35.97
2022-08-19T10:52:35.108Z,35.87
2022-08-19T10:55:29.858Z,35.63
2022-08-19T10:58:02.462Z,35.47
2022-08-19T11:00:38.843Z,35.41
2022-08-19T11:03:06.026Z,35.33
2022-08-19T11:05:53.431Z,35.32
2022-08-19T11:08:32.265Z,35.38
2022-08-19T11:11:03.294Z,35.50
2022-08-19T11:13:37.932Z,35.65
2022-08-19T11:16:17.395Z,35.90
2022-08-19T11:18:53.868Z,36.17
2022-08-19T11:25:05.877Z,36.71
2022-08-19T11:27:33.138Z,36.91
2022-08-19T11:30:04.096Z,37.03
2022-08-19T11:32:37.248Z,37.14
2022-08-19T11:35:10.343Z,37.15
2022-08-19T11:37:39.546Z,36.98
2022-08-19T11:40:18.977Z,36.73
2022-08-19T11:42:56.908Z,36.62
2022-08-19T11:45:36.630Z,36.65
2022-08-19T11:48:20.432Z,36.75
2022-08-19T11:50:59.699Z,36.93
2022-08-19T11:53:26.948Z,37.05
2022-08-19T11:55:57.172Z,37.13
2022-08-19T11:58:30.610Z,37.14
2022-08-19T12:00:57.922Z,37.13
2022-08-19T12:03:25.186Z,37.16
2022-08-19T12:05:52.667Z,37.24
2022-08-19T12:08:20.617Z,37.34
2022-08-19T12:10:47.754Z,37.43
2022-08-19T12:13:19.922Z,37.46
2022-08-19T12:15:47.893Z,37.41
2022-08-19T12:18:18.024Z,37.35
2022-08-19T12:20:47.107Z,37.31
2022-08-19T12:23:21.580Z,37.31
2022-08-19T12:25:53.539Z,37.29
2022-08-19T12:28:21.261Z,37.08
2022-08-19T12:30:49.967Z,36.78
2022-08-19T12:33:19.565Z,36.46
2022-08-19T12:35:50.012Z,36.13
2022-08-19T12:38:18.154Z,35.82
2022-08-19T12:41:01.622Z,35.56
2022-08-19T12:43:31.895Z,35.25
2022-08-19T12:46:00.352Z,35.00
2022-08-19T12:48:34.667Z,34.86
2022-08-19T12:51:14.201Z,34.83
2022-08-19T12:53:49.396Z,34.88
2022-08-19T12:56:23.462Z,35.03
2022-08-19T12:58:59.370Z,35.14
2022-08-19T13:01:31.124Z,35.23
2022-08-19T13:04:02.445Z,35.31
2022-08-19T13:06:50.781Z,35.35
2022-08-19T13:09:19.834Z,35.45
2022-08-19T13:11:47.073Z,35.57
2022-08-19T13:14:42.965Z,35.63
2022-08-19T13:17:18.426Z,35.57
2022-08-19T13:19:46.212Z,35.50
2022-08-19T13:22:49.046Z,35.46
2022-08-19T13:26:00.916Z,35.35
2022-08-19T13:28:54.479Z,35.31
2022-08-19T13:31:41.712Z,35.28
2022-08-19T13:34:24.959Z,35.22
2022-08-19T13:36:56.632Z,35.19
2022-08-19T13:39:26.668Z,35.16
2022-08-19T13:41:56.987Z,35.14
2022-08-19T13:44:24.651Z,35.16
2022-08-19T13:46:54.467Z,35.14
2022-08-19T13:49:28.341Z,35.10
2022-08-19T13:54:45.198Z,35.00
2022-08-19T13:57:35.017Z,34.91
2022-08-19T14:00:29.561Z,34.81
2022-08-19T14:03:10.177Z,34.70
2022-08-19T14:05:37.603Z,34.62
2022-08-19T14:08:04.925Z,34.52
2022-08-19T14:10:32.911Z,34.50
2022-08-19T14:13:02.001Z,34.48
2022-08-19T14:15:32.667Z,34.47
2022-08-19T14:17:59.871Z,34.41
2022-08-19T14:20:30.910Z,34.30
2022-08-19T14:23:00.368Z,34.15
2022-08-19T14:25:30.886Z,34.04
2022-08-19T14:28:11.949Z,33.96
2022-08-19T14:34:43.572Z,33.73
2022-08-19T14:37:16.102Z,33.67
2022-08-19T14:39:43.828Z,33.60
2022-08-19T14:42:11.834Z,33.51
2022-08-19T14:44:39.228Z,33.46
2022-08-19T14:47:08.288Z,33.39
2022-08-19T14:49:44.775Z,33.31
2022-08-19T14:52:15.696Z,33.25
2022-08-19T14:54:42.950Z,33.20
2022-08-19T14:57:13.367Z,33.10
2022-08-19T14:59:40.722Z,33.03
2022-08-19T15:02:34.059Z,32.93
2022-08-19T15:04:58.108Z,32.82
2022-08-19T15:07:28.868Z,32.70
2022-08-19T15:10:00.098Z,32.56
2022-08-19T15:12:27.294Z,32.46
2022-08-19T15:14:56.994Z,32.37
2022-08-19T15:17:34.107Z,32.26
2022-08-19T15:20:18.577Z,32.13
2022-08-19T15:22:45.793Z,31.99
2022-08-19T15:25:14.584Z,31.84
2022-08-19T15:27:41.906Z,31.69
2022-08-19T15:30:09.775Z,31.56
2022-08-19T15:32:37.775Z,31.45
2022-08-19T15:35:06.278Z,31.37
2022-08-19T15:37:34.509Z,31.29
2022-08-19T15:40:06.174Z,31.21
2022-08-19T15:42:36.725Z,31.09
2022-08-19T15:45:06.114Z,30.98
2022-08-19T15:47:34.720Z,30.86
2022-08-19T15:50:11.403Z,30.75
2022-08-19T15:52:53.979Z,30.60
2022-08-19T15:55:32.485Z,30.49
2022-08-19T15:58:31.749Z,30.38
2022-08-19T16:01:20.449Z,30.24
2022-08-19T16:04:14.140Z,30.11
2022-08-19T16:06:53.459Z,29.97
2022-08-19T16:09:32.312Z,29.86
2022-08-19T16:12:04.756Z,29.74
2022-08-19T16:14:32.527Z,29.62
2022-08-19T16:17:02.864Z,29.49
2022-08-19T16:19:31.386Z,29.37
2022-08-19T16:21:58.536Z,29.24
2022-08-19T16:24:27.018Z,29.14
2022-08-19T16:26:57.266Z,29.02
2022-08-19T16:29:34.452Z,28.90
2022-08-19T16:32:10.922Z,28.76
2022-08-19T16:34:40.374Z,28.63
2022-08-19T16:37:08.388Z,28.50
2022-08-19T16:39:36.209Z,28.38
2022-08-19T16:42:04.110Z,28.25
2022-08-19T16:44:37.224Z,28.12
2022-08-19T16:47:04.551Z,27.97
2022-08-19T16:49:52.276Z,27.86
2022-08-19T16:52:19.955Z,27.74
2022-08-19T16:54:47.403Z,27.63
2022-08-19T16:57:14.651Z,27.52
2022-08-19T16:59:43.689Z,27.42
2022-08-19T17:02:23.160Z,27.31
2022-08-19T17:04:57.516Z,27.21
2022-08-19T17:07:32.185Z,27.11
2022-08-19T17:10:01.524Z,27.01
2022-08-19T17:12:31.653Z,26.92
2022-08-19T17:15:03.062Z,26.90
2022-08-19T17:17:31.109Z,26.91
2022-08-19T17:20:00.975Z,26.89
2022-08-19T17:22:28.372Z,26.84
2022-08-19T17:24:56.110Z,26.77
2022-08-19T17:27:25.523Z,26.69
2022-08-19T17:29:53.453Z,26.62
2022-08-19T17:32:24.886Z,26.54
2022-08-19T17:34:54.417Z,26.46
2022-08-19T17:37:21.643Z,26.36
2022-08-19T17:39:49.226Z,26.30
2022-08-19T17:42:16.419Z,26.25
2022-08-19T17:44:44.876Z,26.18
2022-08-19T17:47:19.612Z,26.08
2022-08-19T17:49:46.879Z,25.97
2022-08-19T17:52:14.247Z,25.86
2022-08-19T17:54:45.443Z,25.77
2022-08-19T17:57:12.616Z,25.69
2022-08-19T17:59:40.149Z,25.64
2022-08-19T18:02:08.283Z,25.62
2022-08-19T18:04:38.450Z,25.58
2022-08-19T18:07:06.747Z,25.54
2022-08-19T18:09:41.323Z,25.49
2022-08-19T18:12:13.001Z,25.41
2022-08-19T18:14:40.370Z,25.34
2022-08-19T18:17:12.650Z,25.26
2022-08-19T18:19:44.190Z,25.23
2022-08-19T18:22:37.133Z,25.21
2022-08-19T18:25:25.889Z,25.16
2022-08-19T18:27:57.756Z,25.07
2022-08-19T18:30:25.621Z,24.98
2022-08-19T18:32:53.193Z,24.91
2022-08-19T18:35:30.363Z,24.89
2022-08-19T18:37:59.151Z,24.89
2022-08-19T18:40:46.076Z,24.86
2022-08-19T18:43:32.505Z,24.84
2022-08-19T18:46:18.248Z,24.80
2022-08-19T18:49:04.272Z,24.77
2022-08-19T18:51:32.677Z,24.76
2022-08-19T18:54:00.086Z,24.78
2022-08-19T18:56:32.141Z,24.77
2022-08-19T18:58:59.902Z,24.73
2022-08-19T19:01:39.012Z,24.68
2022-08-19T19:04:12.226Z,24.63
2022-08-19T19:06:41.119Z,24.64
2022-08-19T19:09:12.815Z,24.63
2022-08-19T19:11:46.020Z,24.61
2022-08-19T19:14:27.626Z,24.57
2022-08-19T19:17:04.942Z,24.48
2022-08-19T19:19:32.516Z,24.41
2022-08-19T19:22:01.247Z,24.39
2022-08-19T19:24:30.493Z,24.38
2022-08-19T19:26:58.247Z,24.35
2022-08-19T19:29:25.504Z,24.28
2022-08-19T19:31:56.438Z,24.19
2022-08-19T19:34:29.290Z,24.11
2022-08-19T19:36:57.173Z,24.07
2022-08-19T19:39:42.973Z,24.07
2022-08-19T19:42:21.568Z,24.03
2022-08-19T19:44:53.009Z,23.97
2022-08-19T19:47:21.935Z,23.88
2022-08-19T19:52:41.142Z,23.75
2022-08-19T19:55:09.413Z,23.73
2022-08-19T19:57:37.776Z,23.70
2022-08-19T20:00:06.646Z,23.64
2022-08-19T20:02:33.824Z,23.59
2022-08-19T20:05:04.037Z,23.61
2022-08-19T20:07:49.926Z,23.66
2022-08-19T20:10:17.175Z,23.67
2022-08-19T20:12:44.286Z,23.65
2022-08-19T20:15:11.577Z,23.60
2022-08-19T20:17:42.926Z,23.55
2022-08-19T20:20:11.803Z,23.54
2022-08-19T20:22:40.295Z,23.54
2022-08-19T20:25:08.283Z,23.51
2022-08-19T20:27:39.929Z,23.47
2022-08-19T20:30:08.707Z,23.39
2022-08-19T20:32:42.957Z,23.32
2022-08-19T20:35:11.035Z,23.30
2022-08-19T20:37:38.452Z,23.29
2022-08-19T20:40:06.843Z,23.27
2022-08-19T20:42:34.039Z,23.23
2022-08-19T20:45:03.180Z,23.17
2022-08-19T20:47:32.821Z,23.11
2022-08-19T20:49:59.935Z,23.10
2022-08-19T20:52:27.088Z,23.11
2022-08-19T20:54:54.363Z,23.09
2022-08-19T20:57:21.591Z,23.03
2022-08-19T20:59:49.543Z,22.95
2022-08-19T21:02:16.717Z,22.87
2022-08-19T21:04:43.856Z,22.83
2022-08-19T21:07:15.408Z,22.81
2022-08-19T21:09:46.308Z,22.74
2022-08-19T21:12:13.703Z,22.66
2022-08-19T21:14:41.673Z,22.58
2022-08-19T21:17:09.231Z,22.49
2022-08-19T21:19:36.332Z,22.45
2022-08-19T21:22:03.939Z,22.45
2022-08-19T21:24:31.670Z,22.42
2022-08-19T21:26:59.364Z,22.37
2022-08-19T21:29:26.631Z,22.32
2022-08-19T21:31:53.868Z,22.30
2022-08-19T21:34:21.023Z,22.29
2022-08-19T21:36:48.380Z,22.26
2022-08-19T21:39:15.531Z,22.20
2022-08-19T21:41:43.722Z,22.13
2022-08-19T21:44:11.191Z,22.06
2022-08-19T21:46:38.442Z,22.02
2022-08-19T21:49:05.660Z,22.01
2022-08-19T21:51:32.813Z,21.98
2022-08-19T21:53:59.967Z,21.92
2022-08-19T21:56:27.723Z,21.85
2022-08-19T21:58:57.045Z,21.81
2022-08-19T22:01:24.415Z,21.78
2022-08-19T22:03:51.734Z,21.75
2022-08-19T22:06:19.108Z,21.69
2022-08-19T22:08:46.546Z,21.63
2022-08-19T22:11:13.706Z,21.61
2022-08-19T22:13:40.949Z,21.61
2022-08-19T22:16:23.580Z,21.59
2022-08-19T22:18:54.425Z,21.54
2022-08-19T22:21:39.864Z,21.49
2022-08-19T22:24:08.461Z,21.49
2022-08-19T22:26:35.610Z,21.51
2022-08-19T22:29:02.762Z,21.49
2022-08-19T22:31:32.567Z,21.44
2022-08-19T22:34:02.276Z,21.40
2022-08-19T22:36:32.100Z,21.39
2022-08-19T22:39:00.261Z,21.39
2022-08-19T22:41:32.633Z,21.36
2022-08-19T22:44:00.911Z,21.29
2022-08-19T22:46:28.161Z,21.23
2022-08-19T22:49:00.931Z,21.22
2022-08-19T22:52:08.096Z,21.22
2022-08-19T22:54:35.237Z,21.19
2022-08-19T22:57:19.702Z,21.12
2022-08-19T23:00:04.138Z,21.07
2022-08-19T23:05:50.677Z,21.07
2022-08-19T23:08:19.868Z,21.03
2022-08-19T23:10:49.865Z,20.99
2022-08-19T23:13:17.823Z,20.95
2022-08-19T23:15:45.750Z,20.95
2022-08-19T23:18:13.038Z,20.96
2022-08-19T23:20:41.243Z,20.95
2022-08-19T23:23:09.831Z,20.90
2022-08-19T23:25:37.563Z,20.85
2022-08-19T23:28:23.986Z,20.84
2022-08-19T23:30:51.879Z,20.85
2022-08-19T23:33:41.110Z,20.82
2022-08-19T23:36:16.434Z,20.76
2022-08-19T23:38:44.465Z,20.71
2022-08-19T23:41:12.603Z,20.70
2022-08-19T23:43:40.654Z,20.70
2022-08-19T23:46:10.608Z,20.67
2022-08-19T23:48:38.639Z,20.62
2022-08-19T23:51:09.331Z,20.57
2022-08-19T23:53:44.589Z,20.56
2022-08-19T23:56:12.396Z,20.55
2022-08-19T23:58:39.932Z,20.52
